createdAt,value
2024-01-25T00:01:01.061Z,7.07
2024-01-25T00:03:28.640Z,7.07
2024-01-25T00:05:56.500Z,7.03
2024-01-25T00:08:24.186Z,7.03
2024-01-25T00:10:52.364Z,7.05
2024-01-25T00:13:20.398Z,7.05
2024-01-25T00:15:48.309Z,7.06
2024-01-25T00:18:16.206Z,7.02
2024-01-25T00:20:43.942Z,6.99
2024-01-25T00:23:11.793Z,6.98
2024-01-25T00:25:39.362Z,6.95
2024-01-25T00:28:06.967Z,6.91
2024-01-25T00:30:34.713Z,6.85
2024-01-25T00:33:02.444Z,6.79
2024-01-25T00:35:30.334Z,6.76
2024-01-25T00:37:58.078Z,6.76
2024-01-25T00:40:26.173Z,6.76
2024-01-25T00:42:53.926Z,6.79
2024-01-25T00:45:21.692Z,6.81
2024-01-25T00:47:49.299Z,6.82
2024-01-25T00:50:18.866Z,6.81
2024-01-25T00:52:46.610Z,6.78
2024-01-25T00:55:14.513Z,6.79
2024-01-25T00:57:42.615Z,6.82
2024-01-25T01:00:10.320Z,6.85
2024-01-25T01:02:37.884Z,6.88
2024-01-25T01:05:05.530Z,6.95
2024-01-25T01:07:33.341Z,7.00
2024-01-25T01:10:01.087Z,7.00
2024-01-25T01:12:28.760Z,6.99
2024-01-25T01:14:56.505Z,7.01
2024-01-25T01:17:24.143Z,7.05
2024-01-25T01:19:52.298Z,7.04
2024-01-25T01:22:20.224Z,7.05
2024-01-25T01:24:47.916Z,7.02
2024-01-25T01:27:15.508Z,7.00
2024-01-25T01:29:43.078Z,6.99
2024-01-25T01:32:10.739Z,6.98
2024-01-25T01:34:38.536Z,6.97
2024-01-25T01:37:06.285Z,6.95
2024-01-25T01:39:33.858Z,6.93
2024-01-25T01:42:01.888Z,6.93
2024-01-25T01:44:29.452Z,6.96
2024-01-25T01:46:57.115Z,6.99
2024-01-25T01:49:25.207Z,7.02
2024-01-25T01:51:53.123Z,7.05
2024-01-25T01:54:20.813Z,7.08
2024-01-25T01:56:48.470Z,7.08
2024-01-25T01:59:16.461Z,7.08
2024-01-25T02:01:44.172Z,7.10
2024-01-25T02:04:12.195Z,7.13
2024-01-25T02:06:40.038Z,7.13
2024-01-25T02:09:07.925Z,7.15
2024-01-25T02:11:35.886Z,7.15
2024-01-25T02:14:03.642Z,7.15
2024-01-25T02:16:31.370Z,7.15
2024-01-25T02:18:59.399Z,7.16
2024-01-25T02:21:27.539Z,7.15
2024-01-25T02:23:55.214Z,7.16
2024-01-25T02:26:23.163Z,7.17
2024-01-25T02:28:50.837Z,7.14
2024-01-25T02:31:18.757Z,7.13
2024-01-25T02:33:46.676Z,7.11
2024-01-25T02:36:14.321Z,7.10
2024-01-25T02:38:42.017Z,7.10
2024-01-25T02:41:09.544Z,7.08
2024-01-25T02:43:38.500Z,7.04
2024-01-25T02:46:06.376Z,7.06
2024-01-25T02:48:34.291Z,7.05
2024-01-25T02:51:02.157Z,7.07
2024-01-25T02:53:29.592Z,7.03
2024-01-25T02:55:57.156Z,7.01
2024-01-25T02:58:24.740Z,7.00
2024-01-25T03:00:52.581Z,6.96
2024-01-25T03:03:20.651Z,6.96
2024-01-25T03:05:48.463Z,6.97
2024-01-25T03:08:16.277Z,6.97
2024-01-25T03:10:43.844Z,6.97
2024-01-25T03:13:11.513Z,7.02
2024-01-25T03:15:39.108Z,7.02
2024-01-25T03:18:06.847Z,7.02
2024-01-25T03:20:34.497Z,7.02
2024-01-25T03:23:02.147Z,7.00
2024-01-25T03:25:30.047Z,6.97
2024-01-25T03:27:57.647Z,6.97
2024-01-25T03:30:25.447Z,6.94
2024-01-25T03:32:53.082Z,6.91
2024-01-25T03:35:20.884Z,6.90
2024-01-25T03:37:48.632Z,6.89
2024-01-25T03:40:16.250Z,6.91
2024-01-25T03:42:54.232Z,6.92
2024-01-25T03:45:31.004Z,6.90
2024-01-25T03:47:58.614Z,6.89
2024-01-25T03:50:26.472Z,6.89
2024-01-25T03:52:54.156Z,6.91
2024-01-25T03:55:21.689Z,6.92
2024-01-25T03:57:49.410Z,6.90
2024-01-25T04:00:16.945Z,6.89
2024-01-25T04:02:44.602Z,6.89
2024-01-25T04:05:12.174Z,6.89
2024-01-25T04:07:39.722Z,6.91
2024-01-25T04:10:07.418Z,6.93
2024-01-25T04:12:35.429Z,6.94
2024-01-25T04:15:03.125Z,6.96
2024-01-25T04:17:30.814Z,6.98
2024-01-25T04:19:58.542Z,7.00
2024-01-25T04:22:26.469Z,7.04
2024-01-25T04:24:54.501Z,7.04
2024-01-25T04:27:22.142Z,7.04
2024-01-25T04:29:49.901Z,7.07
2024-01-25T04:32:18.295Z,7.08
2024-01-25T04:34:46.168Z,7.08
2024-01-25T04:37:14.135Z,7.08
2024-01-25T04:39:41.869Z,7.08
2024-01-25T04:42:09.737Z,7.08
2024-01-25T04:44:37.507Z,7.05
2024-01-25T04:47:05.485Z,7.05
2024-01-25T04:49:33.079Z,7.04
2024-01-25T04:52:00.980Z,7.01
2024-01-25T04:54:28.674Z,6.97
2024-01-25T04:56:56.331Z,6.91
2024-01-25T04:59:23.899Z,6.83
2024-01-25T05:01:51.631Z,6.74
2024-01-25T05:04:19.813Z,6.64
2024-01-25T05:06:47.868Z,6.58
2024-01-25T05:09:15.560Z,6.50
2024-01-25T05:11:43.118Z,6.44
2024-01-25T05:14:10.792Z,6.39
2024-01-25T05:16:38.565Z,6.36
2024-01-25T05:19:06.555Z,6.31
2024-01-25T05:21:34.433Z,6.29
2024-01-25T05:24:02.181Z,6.32
2024-01-25T05:26:30.136Z,6.31
2024-01-25T05:28:57.789Z,6.34
2024-01-25T05:31:25.524Z,6.35
2024-01-25T05:33:53.470Z,6.36
2024-01-25T05:36:21.178Z,6.40
2024-01-25T05:38:48.740Z,6.44
2024-01-25T05:41:16.499Z,6.49
2024-01-25T05:43:44.152Z,6.54
2024-01-25T05:46:11.792Z,6.57
2024-01-25T05:48:39.923Z,6.61
2024-01-25T05:51:07.764Z,6.65
2024-01-25T05:53:35.111Z,6.70
2024-01-25T05:56:02.766Z,6.72
2024-01-25T05:58:30.445Z,6.72
2024-01-25T06:00:58.378Z,6.74
2024-01-25T06:03:26.090Z,6.79
2024-01-25T06:05:53.972Z,6.81
2024-01-25T06:08:21.877Z,6.83
2024-01-25T06:10:49.970Z,6.83
2024-01-25T06:13:17.706Z,6.83
2024-01-25T06:15:45.600Z,6.86
2024-01-25T06:18:13.398Z,6.89
2024-01-25T06:20:40.944Z,6.88
2024-01-25T06:23:08.682Z,6.89
2024-01-25T06:25:36.387Z,6.87
2024-01-25T06:28:04.285Z,6.84
2024-01-25T06:30:31.928Z,6.84
2024-01-25T06:32:59.787Z,6.85
2024-01-25T06:35:28.018Z,6.84
2024-01-25T06:37:55.797Z,6.82
2024-01-25T06:40:23.514Z,6.76
2024-01-25T06:42:51.249Z,6.73
2024-01-25T06:45:18.899Z,6.70
2024-01-25T06:47:46.550Z,6.68
2024-01-25T06:50:14.308Z,6.64
2024-01-25T06:52:42.068Z,6.65
2024-01-25T06:55:09.803Z,6.64
2024-01-25T06:57:37.626Z,6.62
2024-01-25T07:00:05.268Z,6.61
2024-01-25T07:02:33.496Z,6.61
2024-01-25T07:05:01.502Z,6.63
2024-01-25T07:07:29.705Z,6.64
2024-01-25T07:09:57.380Z,6.64
2024-01-25T07:12:25.093Z,6.64
2024-01-25T07:14:52.860Z,6.63
2024-01-25T07:17:21.343Z,6.65
2024-01-25T07:19:49.280Z,6.67
2024-01-25T07:22:17.215Z,6.69
2024-01-25T07:24:45.058Z,6.70
2024-01-25T07:27:12.610Z,6.68
2024-01-25T07:29:40.184Z,6.71
2024-01-25T07:32:07.729Z,6.75
2024-01-25T07:34:35.971Z,6.78
2024-01-25T07:37:03.701Z,6.79
2024-01-25T07:39:31.526Z,6.76
2024-01-25T07:41:59.695Z,6.75
2024-01-25T07:44:27.365Z,6.73
2024-01-25T07:46:55.028Z,6.74
2024-01-25T07:49:22.871Z,6.74
2024-01-25T07:51:50.746Z,6.73
2024-01-25T07:54:18.421Z,6.74
2024-01-25T07:56:46.075Z,6.74
2024-01-25T07:59:13.741Z,6.76
2024-01-25T08:01:41.445Z,6.80
2024-01-25T08:04:09.386Z,6.85
2024-01-25T08:06:37.155Z,6.90
2024-01-25T08:09:04.792Z,6.88
2024-01-25T08:11:32.571Z,6.82
2024-01-25T08:14:00.206Z,6.81
2024-01-25T08:16:28.140Z,6.83
2024-01-25T08:18:56.014Z,6.85
2024-01-25T08:21:23.916Z,6.84
2024-01-25T08:23:51.792Z,6.87
2024-01-25T08:26:19.668Z,6.88
2024-01-25T08:28:47.218Z,6.92
2024-01-25T08:31:14.986Z,6.97
2024-01-25T08:33:43.220Z,6.97
2024-01-25T08:36:11.158Z,6.95
2024-01-25T08:38:38.789Z,6.95
2024-01-25T08:41:06.357Z,6.93
2024-01-25T08:43:34.005Z,6.94
2024-01-25T08:46:01.742Z,6.94
2024-01-25T08:48:29.644Z,6.95
2024-01-25T08:50:57.434Z,6.97
2024-01-25T08:53:25.162Z,6.99
2024-01-25T08:55:53.134Z,6.99
2024-01-25T08:58:20.895Z,6.97
2024-01-25T09:00:48.768Z,6.95
2024-01-25T09:03:16.423Z,6.94
2024-01-25T09:05:44.174Z,6.93
2024-01-25T09:08:12.029Z,6.90
2024-01-25T09:10:39.933Z,6.89
2024-01-25T09:13:07.933Z,6.93
2024-01-25T09:15:35.775Z,6.97
2024-01-25T09:18:03.908Z,6.99
2024-01-25T09:20:31.886Z,6.99
2024-01-25T09:22:59.768Z,6.99
2024-01-25T09:25:27.482Z,7.00
2024-01-25T09:27:56.846Z,7.01
2024-01-25T09:30:24.896Z,7.05
2024-01-25T09:32:52.658Z,7.08
2024-01-25T09:35:20.530Z,7.14
2024-01-25T09:37:48.406Z,7.16
2024-01-25T09:40:16.749Z,7.20
2024-01-25T09:42:44.806Z,7.23
2024-01-25T09:45:13.735Z,7.26
2024-01-25T09:47:41.319Z,7.28
2024-01-25T09:50:09.820Z,7.38
2024-01-25T09:52:37.832Z,7.54
2024-01-25T09:55:05.835Z,7.62
2024-01-25T09:57:34.001Z,7.66
2024-01-25T10:00:01.640Z,7.72
2024-01-25T10:02:29.394Z,7.80
2024-01-25T10:04:57.750Z,7.89
2024-01-25T10:07:25.712Z,7.96
2024-01-25T10:09:55.886Z,8.04
2024-01-25T10:12:23.540Z,8.16
2024-01-25T10:14:51.095Z,8.06
2024-01-25T10:17:18.814Z,8.06
2024-01-25T10:19:47.051Z,8.13
2024-01-25T10:22:16.507Z,8.24
2024-01-25T10:24:44.927Z,8.28
2024-01-25T10:27:12.677Z,8.21
2024-01-25T10:29:40.410Z,8.09
2024-01-25T10:32:08.719Z,7.99
2024-01-25T10:34:36.559Z,7.95
2024-01-25T10:37:04.302Z,7.98
2024-01-25T10:39:32.222Z,7.97
2024-01-25T10:42:00.088Z,7.95
2024-01-25T10:44:28.158Z,7.98
2024-01-25T10:46:55.713Z,8.05
2024-01-25T10:49:23.455Z,8.06
2024-01-25T10:51:51.320Z,8.01
2024-01-25T10:54:19.102Z,7.94
2024-01-25T10:56:46.666Z,7.86
2024-01-25T10:59:14.525Z,7.78
2024-01-25T11:01:42.205Z,7.68
2024-01-25T11:04:10.250Z,7.60
2024-01-25T11:06:38.004Z,7.52
2024-01-25T11:09:05.813Z,7.42
2024-01-25T11:11:33.360Z,7.34
2024-01-25T11:14:01.035Z,7.32
2024-01-25T11:16:28.736Z,7.38
2024-01-25T11:18:56.656Z,7.47
2024-01-25T11:21:24.839Z,7.52
2024-01-25T11:23:54.375Z,7.55
2024-01-25T11:26:22.937Z,7.53
2024-01-25T11:28:50.486Z,7.50
2024-01-25T11:31:18.226Z,7.47
2024-01-25T11:33:45.977Z,7.48
2024-01-25T11:36:13.788Z,7.50
2024-01-25T11:38:41.362Z,7.50
2024-01-25T11:41:09.005Z,7.44
2024-01-25T11:43:36.464Z,7.39
2024-01-25T11:46:04.479Z,7.30
2024-01-25T11:48:32.225Z,7.30
2024-01-25T11:51:00.260Z,7.34
2024-01-25T11:53:27.823Z,7.31
2024-01-25T11:55:55.479Z,7.31
2024-01-25T11:58:23.146Z,7.31
2024-01-25T12:00:51.128Z,7.33
2024-01-25T12:03:20.468Z,7.35
2024-01-25T12:05:48.155Z,7.33
2024-01-25T12:08:16.067Z,7.31
2024-01-25T12:10:43.988Z,7.26
2024-01-25T12:13:11.718Z,7.25
2024-01-25T12:15:39.462Z,7.22
2024-01-25T12:18:07.210Z,7.19
2024-01-25T12:20:35.084Z,7.15
2024-01-25T12:23:02.821Z,7.11
2024-01-25T12:25:30.693Z,7.09
2024-01-25T12:27:58.360Z,7.05
2024-01-25T12:30:25.921Z,7.04
2024-01-25T12:32:53.660Z,7.03
2024-01-25T12:35:21.634Z,7.03
2024-01-25T12:37:49.621Z,7.05
2024-01-25T12:40:18.245Z,7.06
2024-01-25T12:42:45.917Z,7.01
2024-01-25T12:45:13.847Z,6.99
2024-01-25T12:47:42.062Z,7.00
2024-01-25T12:50:10.371Z,7.05
2024-01-25T12:52:38.046Z,7.07
2024-01-25T12:55:05.695Z,7.09
2024-01-25T12:57:33.403Z,7.12
2024-01-25T13:00:01.125Z,7.13
2024-01-25T13:02:29.093Z,7.14
2024-01-25T13:04:56.981Z,7.09
2024-01-25T13:07:24.829Z,7.06
2024-01-25T13:09:52.420Z,6.99
2024-01-25T13:12:20.081Z,6.94
2024-01-25T13:14:47.715Z,6.91
2024-01-25T13:17:15.375Z,6.90
2024-01-25T13:19:43.069Z,6.90
2024-01-25T13:22:10.797Z,6.90
2024-01-25T13:24:38.473Z,6.88
2024-01-25T13:27:06.431Z,6.88
2024-01-25T13:29:34.092Z,6.89
2024-01-25T13:32:01.644Z,6.87
2024-01-25T13:34:29.408Z,6.87
2024-01-25T13:36:57.106Z,6.89
2024-01-25T13:39:24.905Z,6.92
2024-01-25T13:41:54.273Z,6.93
2024-01-25T13:44:21.899Z,6.92
2024-01-25T13:46:49.457Z,6.89
2024-01-25T13:49:16.994Z,6.88
2024-01-25T13:51:45.938Z,6.90
2024-01-25T13:54:14.721Z,6.88
2024-01-25T13:56:42.259Z,6.86
2024-01-25T13:59:09.816Z,6.85
2024-01-25T14:01:37.403Z,6.84
2024-01-25T14:04:05.201Z,6.83
2024-01-25T14:06:33.080Z,6.82
2024-01-25T14:09:01.182Z,6.82
2024-01-25T14:11:28.848Z,6.83
2024-01-25T14:13:56.514Z,6.80
2024-01-25T14:16:25.011Z,6.79
2024-01-25T14:18:52.972Z,6.79
2024-01-25T14:21:20.847Z,6.79
2024-01-25T14:23:48.487Z,6.81
2024-01-25T14:26:16.652Z,6.81
2024-01-25T14:28:44.313Z,6.77
2024-01-25T14:31:12.390Z,6.75
2024-01-25T14:33:43.083Z,6.70
2024-01-25T14:36:12.972Z,6.66
2024-01-25T14:38:40.487Z,6.67
2024-01-25T14:41:08.029Z,6.67
2024-01-25T14:43:35.517Z,6.62
2024-01-25T14:46:03.259Z,6.58
2024-01-25T14:48:31.005Z,6.58
2024-01-25T14:50:58.810Z,6.58
2024-01-25T14:53:26.386Z,6.57
2024-01-25T14:55:53.933Z,6.57
2024-01-25T14:58:21.499Z,6.56
2024-01-25T15:00:49.152Z,6.55
2024-01-25T15:03:16.879Z,6.54
2024-01-25T15:05:44.603Z,6.50
2024-01-25T15:08:12.346Z,6.45
2024-01-25T15:10:39.898Z,6.43
2024-01-25T15:13:07.672Z,6.41
2024-01-25T15:15:35.788Z,6.38
2024-01-25T15:18:03.734Z,6.36
2024-01-25T15:20:31.483Z,6.35
2024-01-25T15:22:59.105Z,6.32
2024-01-25T15:25:26.693Z,6.30
2024-01-25T15:27:54.493Z,6.28
2024-01-25T15:30:22.316Z,6.29
2024-01-25T15:32:50.163Z,6.33
2024-01-25T15:35:17.980Z,6.33
2024-01-25T15:37:45.819Z,6.30
2024-01-25T15:40:14.532Z,6.27
2024-01-25T15:42:43.087Z,6.25
2024-01-25T15:45:10.727Z,6.24
2024-01-25T15:47:38.528Z,6.23
2024-01-25T15:50:06.229Z,6.23
2024-01-25T15:52:34.530Z,6.23
2024-01-25T15:55:02.814Z,6.26
2024-01-25T15:57:32.658Z,6.28
2024-01-25T16:00:01.203Z,6.28
2024-01-25T16:02:28.975Z,6.28
2024-01-25T16:04:56.554Z,6.27
2024-01-25T16:07:24.179Z,6.26
2024-01-25T16:09:52.009Z,6.25
2024-01-25T16:12:19.751Z,6.25
2024-01-25T16:14:47.387Z,6.26
2024-01-25T16:17:15.271Z,6.25
2024-01-25T16:19:43.160Z,6.24
2024-01-25T16:22:10.883Z,6.22
2024-01-25T16:24:38.560Z,6.21
2024-01-25T16:27:06.104Z,6.20
2024-01-25T16:29:33.770Z,6.20
2024-01-25T16:32:01.484Z,6.19
2024-01-25T16:34:29.335Z,6.20
2024-01-25T16:36:57.187Z,6.20
2024-01-25T16:39:25.117Z,6.18
2024-01-25T16:41:52.689Z,6.17
2024-01-25T16:44:20.243Z,6.16
2024-01-25T16:46:47.803Z,6.14
2024-01-25T16:49:15.369Z,6.13
2024-01-25T16:51:43.056Z,6.11
2024-01-25T16:54:10.786Z,6.09
2024-01-25T16:56:38.346Z,6.07
2024-01-25T16:59:06.203Z,6.08
2024-01-25T17:01:33.987Z,6.08
2024-01-25T17:04:01.754Z,6.12
2024-01-25T17:06:29.680Z,6.14
2024-01-25T17:08:57.417Z,6.12
2024-01-25T17:11:25.138Z,6.09
2024-01-25T17:13:52.797Z,6.07
2024-01-25T17:16:20.448Z,6.06
2024-01-25T17:18:48.090Z,6.07
2024-01-25T17:21:16.221Z,6.05
2024-01-25T17:23:43.651Z,6.03
2024-01-25T17:26:11.204Z,6.04
2024-01-25T17:28:38.863Z,6.08
2024-01-25T17:31:06.423Z,6.10
2024-01-25T17:33:34.271Z,6.14
2024-01-25T17:36:02.075Z,6.15
2024-01-25T17:38:29.621Z,6.14
2024-01-25T17:40:57.280Z,6.12
2024-01-25T17:43:25.906Z,6.11
2024-01-25T17:45:54.089Z,6.09
2024-01-25T17:48:22.467Z,6.09
2024-01-25T17:50:50.278Z,6.08
2024-01-25T17:53:17.935Z,6.09
2024-01-25T17:55:45.501Z,6.07
2024-01-25T17:58:13.171Z,6.06
2024-01-25T18:00:40.789Z,6.06
2024-01-25T18:03:08.594Z,6.11
2024-01-25T18:05:36.387Z,6.13
2024-01-25T18:08:04.529Z,6.16
2024-01-25T18:10:32.088Z,6.17
2024-01-25T18:13:00.278Z,6.16
2024-01-25T18:15:28.279Z,6.13
2024-01-25T18:17:55.924Z,6.09
2024-01-25T18:20:23.702Z,6.06
2024-01-25T18:22:51.318Z,6.02
2024-01-25T18:25:18.979Z,6.04
2024-01-25T18:27:46.704Z,6.06
2024-01-25T18:30:14.752Z,6.08
2024-01-25T18:32:42.489Z,6.09
2024-01-25T18:35:10.180Z,6.07
2024-01-25T18:37:37.814Z,6.05
2024-01-25T18:40:05.527Z,6.04
2024-01-25T18:42:33.246Z,6.02
2024-01-25T18:45:01.086Z,6.02
2024-01-25T18:47:28.751Z,5.99
2024-01-25T18:49:56.832Z,5.97
2024-01-25T18:52:24.704Z,5.97
2024-01-25T18:54:52.393Z,5.96
2024-01-25T18:57:20.067Z,5.94
2024-01-25T18:59:47.785Z,5.94
2024-01-25T19:02:15.353Z,5.92
2024-01-25T19:04:43.140Z,5.92
2024-01-25T19:07:10.965Z,5.90
2024-01-25T19:09:39.063Z,5.91
2024-01-25T19:12:06.799Z,5.91
2024-01-25T19:14:34.378Z,5.87
2024-01-25T19:17:02.012Z,5.81
2024-01-25T19:19:29.736Z,5.77
2024-01-25T19:21:57.577Z,5.76
2024-01-25T19:24:25.496Z,5.76
2024-01-25T19:26:53.076Z,5.77
2024-01-25T19:29:20.742Z,5.77
2024-01-25T19:31:48.606Z,5.77
2024-01-25T19:34:16.397Z,5.77
2024-01-25T19:36:44.166Z,5.76
2024-01-25T19:39:11.890Z,5.72
2024-01-25T19:41:39.454Z,5.72
2024-01-25T19:44:07.121Z,5.70
2024-01-25T19:46:35.281Z,5.68
2024-01-25T19:49:03.688Z,5.66
2024-01-25T19:51:31.334Z,5.63
2024-01-25T19:53:58.701Z,5.60
2024-01-25T19:56:26.241Z,5.59
2024-01-25T19:58:53.919Z,5.57
2024-01-25T20:01:21.673Z,5.51
2024-01-25T20:03:49.411Z,5.46
2024-01-25T20:06:17.333Z,5.45
2024-01-25T20:08:44.951Z,5.45
2024-01-25T20:11:12.516Z,5.42
2024-01-25T20:13:39.879Z,5.35
2024-01-25T20:16:07.572Z,5.30
2024-01-25T20:18:35.366Z,5.24
2024-01-25T20:21:03.267Z,5.17
2024-01-25T20:23:31.127Z,5.12
2024-01-25T20:25:58.809Z,5.08
2024-01-25T20:28:27.235Z,5.05
2024-01-25T20:30:55.169Z,5.04
2024-01-25T20:33:22.964Z,5.05
2024-01-25T20:35:50.580Z,5.07
2024-01-25T20:38:18.647Z,5.09
2024-01-25T20:40:46.309Z,5.10
2024-01-25T20:43:13.985Z,5.07
2024-01-25T20:45:41.662Z,5.05
2024-01-25T20:48:09.494Z,5.03
2024-01-25T20:50:39.116Z,4.98
2024-01-25T20:53:07.554Z,4.94
2024-01-25T20:55:35.756Z,4.93
2024-01-25T20:58:03.399Z,4.93
2024-01-25T21:00:31.266Z,4.92
2024-01-25T21:02:59.060Z,4.91
2024-01-25T21:05:26.635Z,4.89
2024-01-25T21:07:54.271Z,4.86
2024-01-25T21:10:21.845Z,4.86
2024-01-25T21:12:49.552Z,4.87
2024-01-25T21:15:17.186Z,4.87
2024-01-25T21:17:45.264Z,4.89
2024-01-25T21:20:12.893Z,4.92
2024-01-25T21:22:40.553Z,4.94
2024-01-25T21:25:11.314Z,4.94
2024-01-25T21:27:39.842Z,4.95
2024-01-25T21:30:07.657Z,4.95
2024-01-25T21:32:35.465Z,4.96
2024-01-25T21:35:03.353Z,4.97
2024-01-25T21:37:31.121Z,4.98
2024-01-25T21:39:59.135Z,5.00
2024-01-25T21:42:27.000Z,5.03
2024-01-25T21:44:54.742Z,5.05
2024-01-25T21:47:22.489Z,5.06
2024-01-25T21:49:50.655Z,5.06
2024-01-25T21:52:21.242Z,5.05
2024-01-25T21:54:50.466Z,5.03
2024-01-25T21:57:18.620Z,5.02
2024-01-25T21:59:46.734Z,5.03
2024-01-25T22:02:14.391Z,5.03
2024-01-25T22:04:42.111Z,5.02
2024-01-25T22:07:09.981Z,5.01
2024-01-25T22:09:37.806Z,5.00
2024-01-25T22:12:05.348Z,5.01
2024-01-25T22:14:33.013Z,5.00
2024-01-25T22:17:00.678Z,5.00
2024-01-25T22:19:28.520Z,5.00
2024-01-25T22:21:56.529Z,5.00
2024-01-25T22:24:24.221Z,5.01
2024-01-25T22:26:51.839Z,5.01
2024-01-25T22:29:19.903Z,4.98
2024-01-25T22:31:47.568Z,4.98
2024-01-25T22:34:15.358Z,4.96
2024-01-25T22:36:42.999Z,4.97
2024-01-25T22:39:10.667Z,4.98
2024-01-25T22:41:38.215Z,4.99
2024-01-25T22:44:05.871Z,4.99
2024-01-25T22:46:33.425Z,4.97
2024-01-25T22:49:01.170Z,4.97
2024-01-25T22:51:28.878Z,4.96
2024-01-25T22:53:56.317Z,4.96
2024-01-25T22:56:23.873Z,4.96
2024-01-25T22:58:51.745Z,4.96
2024-01-25T23:01:19.996Z,4.96
2024-01-25T23:03:47.702Z,4.94
2024-01-25T23:06:15.751Z,4.92
2024-01-25T23:08:43.297Z,4.91
2024-01-25T23:11:11.478Z,4.91
2024-01-25T23:13:39.138Z,4.91
2024-01-25T23:16:06.990Z,4.91
2024-01-25T23:18:34.796Z,4.91
2024-01-25T23:21:02.449Z,4.91
2024-01-25T23:23:30.209Z,4.90
2024-01-25T23:25:57.853Z,4.88
2024-01-25T23:28:25.412Z,4.86
2024-01-25T23:30:53.017Z,4.84
2024-01-25T23:33:21.042Z,4.81
2024-01-25T23:35:48.813Z,4.80
2024-01-25T23:38:16.472Z,4.78
2024-01-25T23:40:44.030Z,4.77
2024-01-25T23:43:12.011Z,4.76
2024-01-25T23:45:40.109Z,4.75
2024-01-25T23:48:08.022Z,4.74
2024-01-25T23:50:35.945Z,4.73
2024-01-25T23:53:03.989Z,4.73
2024-01-25T23:55:31.646Z,4.71
2024-01-25T23:57:59.597Z,4.71
